sensor_id;sensor_type;location;lat;lon;timestamp;P1;durP1;ratioP1;P2;durP2;ratioP2
14203;SDS011;7185;51.854;6.622;2024-03-08T00:01:45;32.20;;;18.00;;
14203;SDS011;7185;51.854;6.622;2024-03-08T00:04:17;31.92;;;17.90;;
14203;SDS011;7185;51.854;6.622;2024-03-08T00:06:48;31.55;;;19.08;;
14203;SDS011;7185;51.854;6.622;2024-03-08T00:09:21;32.97;;;18.83;;
14203;SDS011;7185;51.854;6.622;2024-03-08T00:11:52;33.25;;;19.35;;
14203;SDS011;7185;51.854;6.622;2024-03-08T00:14:24;33.20;;;18.95;;
14203;SDS011;7185;51.854;6.622;2024-03-08T00:16:57;33.53;;;19.70;;
14203;SDS011;7185;51.854;6.622;2024-03-08T00:19:29;32.90;;;18.33;;
14203;SDS011;7185;51.854;6.622;2024-03-08T00:22:00;32.05;;;18.75;;
14203;SDS011;7185;51.854;6.622;2024-03-08T00:24:32;36.30;;;19.15;;
14203;SDS011;7185;51.854;6.622;2024-03-08T00:27:04;33.53;;;18.63;;
14203;SDS011;7185;51.854;6.622;2024-03-08T00:29:36;35.17;;;19.05;;
14203;SDS011;7185;51.854;6.622;2024-03-08T00:32:10;41.00;;;19.88;;
14203;SDS011;7185;51.854;6.622;2024-03-08T00:34:42;36.88;;;20.02;;
14203;SDS011;7185;51.854;6.622;2024-03-08T00:37:14;36.50;;;19.90;;
14203;SDS011;7185;51.854;6.622;2024-03-08T00:39:45;35.88;;;19.48;;
14203;SDS011;7185;51.854;6.622;2024-03-08T00:42:17;33.40;;;19.50;;
14203;SDS011;7185;51.854;6.622;2024-03-08T00:44:49;34.30;;;18.83;;
14203;SDS011;7185;51.854;6.622;2024-03-08T00:47:22;35.58;;;19.17;;
14203;SDS011;7185;51.854;6.622;2024-03-08T00:49:54;36.53;;;20.08;;
14203;SDS011;7185;51.854;6.622;2024-03-08T00:52:26;34.83;;;20.08;;
14203;SDS011;7185;51.854;6.622;2024-03-08T00:54:58;35.30;;;19.88;;
14203;SDS011;7185;51.854;6.622;2024-03-08T00:57:30;35.28;;;20.13;;
14203;SDS011;7185;51.854;6.622;2024-03-08T01:00:02;36.90;;;20.42;;
14203;SDS011;7185;51.854;6.622;2024-03-08T01:02:37;40.20;;;20.80;;
14203;SDS011;7185;51.854;6.622;2024-03-08T01:05:09;42.20;;;20.73;;
14203;SDS011;7185;51.854;6.622;2024-03-08T01:07:40;35.47;;;19.50;;
14203;SDS011;7185;51.854;6.622;2024-03-08T01:10:12;36.83;;;19.88;;
14203;SDS011;7185;51.854;6.622;2024-03-08T01:12:44;37.35;;;20.50;;
14203;SDS011;7185;51.854;6.622;2024-03-08T01:15:16;40.65;;;21.13;;
14203;SDS011;7185;51.854;6.622;2024-03-08T01:17:49;37.38;;;20.73;;
14203;SDS011;7185;51.854;6.622;2024-03-08T01:20:21;39.00;;;20.33;;
14203;SDS011;7185;51.854;6.622;2024-03-08T01:22:53;38.10;;;20.63;;
14203;SDS011;7185;51.854;6.622;2024-03-08T01:25:24;39.05;;;21.15;;
14203;SDS011;7185;51.854;6.622;2024-03-08T01:27:56;37.97;;;21.00;;
14203;SDS011;7185;51.854;6.622;2024-03-08T01:30:28;35.70;;;20.42;;
14203;SDS011;7185;51.854;6.622;2024-03-08T01:33:01;39.60;;;21.60;;
14203;SDS011;7185;51.854;6.622;2024-03-08T01:35:32;42.38;;;22.20;;
14203;SDS011;7185;51.854;6.622;2024-03-08T01:38:04;43.97;;;22.70;;
14203;SDS011;7185;51.854;6.622;2024-03-08T01:40:36;39.67;;;23.02;;
14203;SDS011;7185;51.854;6.622;2024-03-08T01:43:17;39.90;;;21.48;;
14203;SDS011;7185;51.854;6.622;2024-03-08T02:00:19;40.08;;;21.00;;
14203;SDS011;7185;51.854;6.622;2024-03-08T02:44:13;39.53;;;22.30;;
14203;SDS011;7185;51.854;6.622;2024-03-08T02:51:23;42.05;;;22.45;;
14203;SDS011;7185;51.854;6.622;2024-03-08T02:53:56;45.95;;;23.92;;
14203;SDS011;7185;51.854;6.622;2024-03-08T02:56:28;41.05;;;23.05;;
14203;SDS011;7185;51.854;6.622;2024-03-08T02:59:00;44.33;;;23.08;;
14203;SDS011;7185;51.854;6.622;2024-03-08T03:01:32;44.78;;;23.98;;
14203;SDS011;7185;51.854;6.622;2024-03-08T03:04:05;42.30;;;23.30;;
14203;SDS011;7185;51.854;6.622;2024-03-08T03:06:38;44.13;;;23.05;;
14203;SDS011;7185;51.854;6.622;2024-03-08T03:09:09;43.72;;;22.73;;
14203;SDS011;7185;51.854;6.622;2024-03-08T03:11:43;46.13;;;22.50;;
14203;SDS011;7185;51.854;6.622;2024-03-08T03:14:15;43.10;;;22.05;;
14203;SDS011;7185;51.854;6.622;2024-03-08T03:16:47;43.03;;;22.20;;
14203;SDS011;7185;51.854;6.622;2024-03-08T03:19:18;44.22;;;22.73;;
14203;SDS011;7185;51.854;6.622;2024-03-08T03:21:51;40.30;;;22.25;;
14203;SDS011;7185;51.854;6.622;2024-03-08T03:24:23;40.20;;;21.25;;
14203;SDS011;7185;51.854;6.622;2024-03-08T03:26:55;49.22;;;24.02;;
14203;SDS011;7185;51.854;6.622;2024-03-08T03:29:27;39.60;;;22.60;;
14203;SDS011;7185;51.854;6.622;2024-03-08T03:32:00;45.72;;;24.83;;
14203;SDS011;7185;51.854;6.622;2024-03-08T03:34:33;42.90;;;22.70;;
14203;SDS011;7185;51.854;6.622;2024-03-08T03:37:07;44.42;;;22.70;;
14203;SDS011;7185;51.854;6.622;2024-03-08T03:39:42;46.40;;;24.33;;
14203;SDS011;7185;51.854;6.622;2024-03-08T03:42:19;42.72;;;22.63;;
14203;SDS011;7185;51.854;6.622;2024-03-08T03:44:51;42.58;;;23.33;;
14203;SDS011;7185;51.854;6.622;2024-03-08T03:47:23;40.95;;;21.50;;
14203;SDS011;7185;51.854;6.622;2024-03-08T03:49:54;46.53;;;23.77;;
14203;SDS011;7185;51.854;6.622;2024-03-08T03:52:33;44.53;;;22.42;;
14203;SDS011;7185;51.854;6.622;2024-03-08T03:55:04;43.08;;;22.80;;
14203;SDS011;7185;51.854;6.622;2024-03-08T03:57:37;45.97;;;22.50;;
14203;SDS011;7185;51.854;6.622;2024-03-08T04:00:09;43.15;;;23.27;;
14203;SDS011;7185;51.854;6.622;2024-03-08T04:02:41;45.90;;;22.88;;
14203;SDS011;7185;51.854;6.622;2024-03-08T04:05:13;43.63;;;22.33;;
14203;SDS011;7185;51.854;6.622;2024-03-08T04:12:59;45.60;;;23.35;;
14203;SDS011;7185;51.854;6.622;2024-03-08T04:15:30;46.25;;;23.85;;
14203;SDS011;7185;51.854;6.622;2024-03-08T04:18:02;43.90;;;23.02;;
14203;SDS011;7185;51.854;6.622;2024-03-08T04:20:34;42.30;;;22.77;;
14203;SDS011;7185;51.854;6.622;2024-03-08T04:23:06;41.17;;;22.20;;
14203;SDS011;7185;51.854;6.622;2024-03-08T04:25:37;40.45;;;22.50;;
14203;SDS011;7185;51.854;6.622;2024-03-08T04:28:10;45.45;;;23.20;;
14203;SDS011;7185;51.854;6.622;2024-03-08T04:30:42;41.70;;;23.15;;
14203;SDS011;7185;51.854;6.622;2024-03-08T04:33:16;49.85;;;24.08;;
14203;SDS011;7185;51.854;6.622;2024-03-08T04:35:48;47.15;;;23.90;;
14203;SDS011;7185;51.854;6.622;2024-03-08T04:38:20;48.00;;;24.23;;
14203;SDS011;7185;51.854;6.622;2024-03-08T04:40:52;45.25;;;23.77;;
14203;SDS011;7185;51.854;6.622;2024-03-08T04:43:25;47.20;;;22.65;;
14203;SDS011;7185;51.854;6.622;2024-03-08T04:45:57;47.28;;;23.70;;
14203;SDS011;7185;51.854;6.622;2024-03-08T04:48:29;44.55;;;23.02;;
14203;SDS011;7185;51.854;6.622;2024-03-08T04:51:01;43.70;;;23.30;;
14203;SDS011;7185;51.854;6.622;2024-03-08T04:53:32;45.03;;;22.98;;
14203;SDS011;7185;51.854;6.622;2024-03-08T04:56:04;46.92;;;24.95;;
14203;SDS011;7185;51.854;6.622;2024-03-08T04:58:38;43.05;;;23.00;;
14203;SDS011;7185;51.854;6.622;2024-03-08T05:01:10;46.63;;;24.85;;
14203;SDS011;7185;51.854;6.622;2024-03-08T05:03:42;45.80;;;23.90;;
14203;SDS011;7185;51.854;6.622;2024-03-08T05:06:13;46.72;;;24.75;;
14203;SDS011;7185;51.854;6.622;2024-03-08T05:08:45;47.72;;;24.08;;
14203;SDS011;7185;51.854;6.622;2024-03-08T05:11:17;45.72;;;23.40;;
14203;SDS011;7185;51.854;6.622;2024-03-08T05:13:50;44.13;;;22.52;;
14203;SDS011;7185;51.854;6.622;2024-03-08T05:16:21;48.88;;;25.25;;
14203;SDS011;7185;51.854;6.622;2024-03-08T05:18:54;47.65;;;25.33;;
14203;SDS011;7185;51.854;6.622;2024-03-08T05:21:27;49.03;;;24.45;;
14203;SDS011;7185;51.854;6.622;2024-03-08T05:23:59;46.70;;;24.23;;
14203;SDS011;7185;51.854;6.622;2024-03-08T05:26:30;46.63;;;23.80;;
14203;SDS011;7185;51.854;6.622;2024-03-08T05:29:04;49.08;;;24.58;;
14203;SDS011;7185;51.854;6.622;2024-03-08T05:31:38;53.08;;;25.42;;
14203;SDS011;7185;51.854;6.622;2024-03-08T05:34:14;48.90;;;25.15;;
14203;SDS011;7185;51.854;6.622;2024-03-08T05:36:46;49.22;;;24.77;;
14203;SDS011;7185;51.854;6.622;2024-03-08T05:39:19;49.10;;;26.08;;
14203;SDS011;7185;51.854;6.622;2024-03-08T05:41:51;47.83;;;23.63;;
14203;SDS011;7185;51.854;6.622;2024-03-08T05:44:24;45.72;;;23.00;;
14203;SDS011;7185;51.854;6.622;2024-03-08T05:46:58;46.88;;;23.75;;
14203;SDS011;7185;51.854;6.622;2024-03-08T05:49:30;52.83;;;26.02;;
14203;SDS011;7185;51.854;6.622;2024-03-08T05:52:02;46.08;;;24.77;;
14203;SDS011;7185;51.854;6.622;2024-03-08T05:54:34;51.97;;;25.25;;
14203;SDS011;7185;51.854;6.622;2024-03-08T05:57:06;47.97;;;25.88;;
14203;SDS011;7185;51.854;6.622;2024-03-08T05:59:39;47.83;;;24.50;;
14203;SDS011;7185;51.854;6.622;2024-03-08T06:02:11;48.03;;;24.75;;
14203;SDS011;7185;51.854;6.622;2024-03-08T06:04:46;52.95;;;24.80;;
14203;SDS011;7185;51.854;6.622;2024-03-08T06:07:18;50.50;;;25.95;;
14203;SDS011;7185;51.854;6.622;2024-03-08T06:09:50;52.22;;;25.67;;
14203;SDS011;7185;51.854;6.622;2024-03-08T06:12:22;50.25;;;25.42;;
14203;SDS011;7185;51.854;6.622;2024-03-08T06:15:00;58.35;;;26.42;;
14203;SDS011;7185;51.854;6.622;2024-03-08T06:17:32;50.05;;;25.08;;
14203;SDS011;7185;51.854;6.622;2024-03-08T06:20:04;46.90;;;25.67;;
14203;SDS011;7185;51.854;6.622;2024-03-08T06:22:40;60.65;;;28.15;;
14203;SDS011;7185;51.854;6.622;2024-03-08T06:25:12;52.63;;;27.90;;
14203;SDS011;7185;51.854;6.622;2024-03-08T06:27:45;51.35;;;27.02;;
14203;SDS011;7185;51.854;6.622;2024-03-08T06:30:18;49.17;;;26.58;;
14203;SDS011;7185;51.854;6.622;2024-03-08T06:32:50;55.13;;;28.60;;
14203;SDS011;7185;51.854;6.622;2024-03-08T06:35:22;50.85;;;28.13;;
14203;SDS011;7185;51.854;6.622;2024-03-08T06:37:54;53.85;;;29.55;;
14203;SDS011;7185;51.854;6.622;2024-03-08T06:40:26;50.42;;;27.48;;
14203;SDS011;7185;51.854;6.622;2024-03-08T06:43:06;55.05;;;28.02;;
14203;SDS011;7185;51.854;6.622;2024-03-08T06:45:40;50.30;;;26.95;;
14203;SDS011;7185;51.854;6.622;2024-03-08T06:48:12;52.63;;;28.23;;
14203;SDS011;7185;51.854;6.622;2024-03-08T06:50:44;52.15;;;27.58;;
14203;SDS011;7185;51.854;6.622;2024-03-08T06:53:22;46.55;;;25.73;;
14203;SDS011;7185;51.854;6.622;2024-03-08T06:55:55;50.67;;;26.33;;
14203;SDS011;7185;51.854;6.622;2024-03-08T06:58:29;52.25;;;25.88;;
14203;SDS011;7185;51.854;6.622;2024-03-08T07:01:09;49.47;;;25.63;;
14203;SDS011;7185;51.854;6.622;2024-03-08T07:03:45;47.67;;;26.45;;
14203;SDS011;7185;51.854;6.622;2024-03-08T07:06:22;49.15;;;25.65;;
14203;SDS011;7185;51.854;6.622;2024-03-08T07:08:56;47.78;;;25.25;;
14203;SDS011;7185;51.854;6.622;2024-03-08T07:11:29;50.03;;;26.42;;
14203;SDS011;7185;51.854;6.622;2024-03-08T07:14:05;51.88;;;25.77;;
14203;SDS011;7185;51.854;6.622;2024-03-08T07:16:40;48.38;;;25.98;;
14203;SDS011;7185;51.854;6.622;2024-03-08T07:19:12;46.42;;;24.60;;
14203;SDS011;7185;51.854;6.622;2024-03-08T07:21:44;40.40;;;23.48;;
14203;SDS011;7185;51.854;6.622;2024-03-08T07:24:17;54.30;;;26.42;;
14203;SDS011;7185;51.854;6.622;2024-03-08T07:27:10;44.60;;;24.13;;
14203;SDS011;7185;51.854;6.622;2024-03-08T07:29:42;46.17;;;24.08;;
14203;SDS011;7185;51.854;6.622;2024-03-08T07:32:16;46.55;;;24.73;;
14203;SDS011;7185;51.854;6.622;2024-03-08T07:34:51;42.63;;;24.15;;
14203;SDS011;7185;51.854;6.622;2024-03-08T07:37:23;47.95;;;24.48;;
14203;SDS011;7185;51.854;6.622;2024-03-08T07:39:56;43.55;;;23.88;;
14203;SDS011;7185;51.854;6.622;2024-03-08T07:42:28;47.20;;;24.25;;
14203;SDS011;7185;51.854;6.622;2024-03-08T07:45:00;39.80;;;23.15;;
14203;SDS011;7185;51.854;6.622;2024-03-08T07:47:35;41.58;;;23.85;;
14203;SDS011;7185;51.854;6.622;2024-03-08T07:50:08;43.95;;;25.08;;
14203;SDS011;7185;51.854;6.622;2024-03-08T07:52:40;41.15;;;22.38;;
14203;SDS011;7185;51.854;6.622;2024-03-08T07:55:12;40.58;;;24.00;;
14203;SDS011;7185;51.854;6.622;2024-03-08T07:57:46;41.00;;;22.63;;
14203;SDS011;7185;51.854;6.622;2024-03-08T08:00:19;43.15;;;24.45;;
14203;SDS011;7185;51.854;6.622;2024-03-08T08:02:53;40.65;;;23.50;;
14203;SDS011;7185;51.854;6.622;2024-03-08T08:05:26;40.40;;;22.92;;
14203;SDS011;7185;51.854;6.622;2024-03-08T08:07:58;42.00;;;22.42;;
14203;SDS011;7185;51.854;6.622;2024-03-08T08:10:32;40.45;;;23.75;;
14203;SDS011;7185;51.854;6.622;2024-03-08T08:13:04;47.40;;;24.73;;
14203;SDS011;7185;51.854;6.622;2024-03-08T08:15:36;38.00;;;23.35;;
14203;SDS011;7185;51.854;6.622;2024-03-08T08:18:09;38.88;;;23.02;;
14203;SDS011;7185;51.854;6.622;2024-03-08T08:20:41;46.30;;;24.15;;
14203;SDS011;7185;51.854;6.622;2024-03-08T08:23:13;40.97;;;24.65;;
14203;SDS011;7185;51.854;6.622;2024-03-08T08:25:45;41.08;;;23.17;;
14203;SDS011;7185;51.854;6.622;2024-03-08T08:28:18;34.05;;;22.55;;
14203;SDS011;7185;51.854;6.622;2024-03-08T08:30:50;39.25;;;22.63;;
14203;SDS011;7185;51.854;6.622;2024-03-08T08:33:23;36.60;;;22.33;;
14203;SDS011;7185;51.854;6.622;2024-03-08T08:35:55;34.67;;;22.33;;
14203;SDS011;7185;51.854;6.622;2024-03-08T08:38:28;37.38;;;22.88;;
14203;SDS011;7185;51.854;6.622;2024-03-08T08:41:00;37.50;;;23.15;;
14203;SDS011;7185;51.854;6.622;2024-03-08T08:43:32;35.75;;;22.52;;
14203;SDS011;7185;51.854;6.622;2024-03-08T08:46:04;36.03;;;22.00;;
14203;SDS011;7185;51.854;6.622;2024-03-08T08:48:37;37.72;;;23.20;;
14203;SDS011;7185;51.854;6.622;2024-03-08T08:51:11;36.95;;;21.73;;
14203;SDS011;7185;51.854;6.622;2024-03-08T08:53:42;35.60;;;21.02;;
14203;SDS011;7185;51.854;6.622;2024-03-08T08:56:15;35.05;;;22.55;;
14203;SDS011;7185;51.854;6.622;2024-03-08T08:59:03;33.95;;;21.80;;
14203;SDS011;7185;51.854;6.622;2024-03-08T09:01:35;34.25;;;21.73;;
14203;SDS011;7185;51.854;6.622;2024-03-08T09:04:08;38.85;;;22.55;;
14203;SDS011;7185;51.854;6.622;2024-03-08T09:06:41;37.50;;;22.20;;
14203;SDS011;7185;51.854;6.622;2024-03-08T09:09:14;39.08;;;23.08;;
14203;SDS011;7185;51.854;6.622;2024-03-08T09:11:47;34.33;;;21.85;;
14203;SDS011;7185;51.854;6.622;2024-03-08T09:14:19;31.90;;;20.60;;
14203;SDS011;7185;51.854;6.622;2024-03-08T09:16:51;34.28;;;22.02;;
14203;SDS011;7185;51.854;6.622;2024-03-08T09:19:24;33.55;;;21.23;;
14203;SDS011;7185;51.854;6.622;2024-03-08T09:21:56;32.30;;;21.27;;
14203;SDS011;7185;51.854;6.622;2024-03-08T09:24:28;32.78;;;21.35;;
14203;SDS011;7185;51.854;6.622;2024-03-08T09:26:59;32.35;;;22.08;;
14203;SDS011;7185;51.854;6.622;2024-03-08T09:29:31;31.83;;;21.42;;
14203;SDS011;7185;51.854;6.622;2024-03-08T09:32:03;31.10;;;20.23;;
14203;SDS011;7185;51.854;6.622;2024-03-08T09:34:36;32.20;;;21.67;;
14203;SDS011;7185;51.854;6.622;2024-03-08T09:37:08;30.70;;;20.50;;
14203;SDS011;7185;51.854;6.622;2024-03-08T09:39:40;32.05;;;21.13;;
14203;SDS011;7185;51.854;6.622;2024-03-08T09:42:11;33.00;;;21.60;;
14203;SDS011;7185;51.854;6.622;2024-03-08T09:44:44;30.70;;;20.77;;
14203;SDS011;7185;51.854;6.622;2024-03-08T09:47:17;31.55;;;20.90;;
14203;SDS011;7185;51.854;6.622;2024-03-08T09:49:52;30.88;;;20.80;;
14203;SDS011;7185;51.854;6.622;2024-03-08T09:52:23;33.25;;;19.83;;
14203;SDS011;7185;51.854;6.622;2024-03-08T09:54:56;31.50;;;21.02;;
14203;SDS011;7185;51.854;6.622;2024-03-08T09:57:28;30.83;;;19.48;;
14203;SDS011;7185;51.854;6.622;2024-03-08T10:00:00;29.15;;;19.58;;
14203;SDS011;7185;51.854;6.622;2024-03-08T10:02:31;30.35;;;20.80;;
14203;SDS011;7185;51.854;6.622;2024-03-08T10:05:06;32.08;;;20.95;;
14203;SDS011;7185;51.854;6.622;2024-03-08T10:07:40;32.90;;;20.90;;
14203;SDS011;7185;51.854;6.622;2024-03-08T10:10:12;30.45;;;20.17;;
14203;SDS011;7185;51.854;6.622;2024-03-08T10:12:44;30.45;;;20.30;;
14203;SDS011;7185;51.854;6.622;2024-03-08T10:15:16;30.30;;;19.65;;
14203;SDS011;7185;51.854;6.622;2024-03-08T10:17:47;31.50;;;19.80;;
14203;SDS011;7185;51.854;6.622;2024-03-08T10:20:21;29.52;;;20.25;;
14203;SDS011;7185;51.854;6.622;2024-03-08T10:22:54;29.60;;;20.02;;
14203;SDS011;7185;51.854;6.622;2024-03-08T10:25:26;27.42;;;19.23;;
14203;SDS011;7185;51.854;6.622;2024-03-08T10:27:57;30.13;;;19.95;;
14203;SDS011;7185;51.854;6.622;2024-03-08T10:30:29;29.38;;;19.75;;
14203;SDS011;7185;51.854;6.622;2024-03-08T10:33:01;30.45;;;19.88;;
14203;SDS011;7185;51.854;6.622;2024-03-08T10:35:36;27.63;;;19.10;;
14203;SDS011;7185;51.854;6.622;2024-03-08T10:38:08;27.58;;;17.92;;
14203;SDS011;7185;51.854;6.622;2024-03-08T10:40:43;29.67;;;18.60;;
14203;SDS011;7185;51.854;6.622;2024-03-08T10:43:17;29.75;;;18.88;;
14203;SDS011;7185;51.854;6.622;2024-03-08T10:45:58;27.90;;;18.95;;
14203;SDS011;7185;51.854;6.622;2024-03-08T10:48:42;25.02;;;17.92;;
14203;SDS011;7185;51.854;6.622;2024-03-08T10:51:17;30.23;;;19.02;;
14203;SDS011;7185;51.854;6.622;2024-03-08T10:53:50;27.98;;;18.23;;
14203;SDS011;7185;51.854;6.622;2024-03-08T10:56:24;24.77;;;17.75;;
14203;SDS011;7185;51.854;6.622;2024-03-08T10:58:57;25.48;;;16.90;;
14203;SDS011;7185;51.854;6.622;2024-03-08T11:01:29;25.63;;;17.75;;
14203;SDS011;7185;51.854;6.622;2024-03-08T11:04:03;24.55;;;16.85;;
14203;SDS011;7185;51.854;6.622;2024-03-08T11:06:42;26.25;;;19.25;;
14203;SDS011;7185;51.854;6.622;2024-03-08T11:14:43;24.40;;;17.73;;
14203;SDS011;7185;51.854;6.622;2024-03-08T11:17:26;26.75;;;19.25;;
14203;SDS011;7185;51.854;6.622;2024-03-08T11:20:15;26.10;;;18.98;;
14203;SDS011;7185;51.854;6.622;2024-03-08T11:22:54;25.13;;;17.70;;
14203;SDS011;7185;51.854;6.622;2024-03-08T11:25:39;25.23;;;17.58;;
14203;SDS011;7185;51.854;6.622;2024-03-08T11:28:13;25.70;;;17.33;;
14203;SDS011;7185;51.854;6.622;2024-03-08T11:33:57;23.90;;;18.15;;
14203;SDS011;7185;51.854;6.622;2024-03-08T11:36:30;24.95;;;18.30;;
14203;SDS011;7185;51.854;6.622;2024-03-08T11:39:11;21.95;;;16.38;;
14203;SDS011;7185;51.854;6.622;2024-03-08T11:41:47;22.90;;;16.60;;
14203;SDS011;7185;51.854;6.622;2024-03-08T11:44:20;22.83;;;16.88;;
14203;SDS011;7185;51.854;6.622;2024-03-08T11:46:52;24.30;;;18.65;;
14203;SDS011;7185;51.854;6.622;2024-03-08T11:49:28;23.92;;;16.70;;
14203;SDS011;7185;51.854;6.622;2024-03-08T11:52:03;24.75;;;17.50;;
14203;SDS011;7185;51.854;6.622;2024-03-08T11:54:38;26.83;;;18.02;;
14203;SDS011;7185;51.854;6.622;2024-03-08T11:57:13;24.08;;;17.02;;
14203;SDS011;7185;51.854;6.622;2024-03-08T11:59:51;24.77;;;17.60;;
14203;SDS011;7185;51.854;6.622;2024-03-08T12:02:24;25.30;;;17.83;;
14203;SDS011;7185;51.854;6.622;2024-03-08T12:05:01;24.63;;;17.77;;
14203;SDS011;7185;51.854;6.622;2024-03-08T12:07:34;27.48;;;18.60;;
14203;SDS011;7185;51.854;6.622;2024-03-08T12:10:15;26.00;;;17.75;;
14203;SDS011;7185;51.854;6.622;2024-03-08T12:12:51;23.40;;;17.23;;
14203;SDS011;7185;51.854;6.622;2024-03-08T12:15:24;22.50;;;17.48;;
14203;SDS011;7185;51.854;6.622;2024-03-08T12:17:57;24.10;;;16.83;;
14203;SDS011;7185;51.854;6.622;2024-03-08T12:20:30;25.98;;;17.92;;
14203;SDS011;7185;51.854;6.622;2024-03-08T12:23:02;23.17;;;16.85;;
14203;SDS011;7185;51.854;6.622;2024-03-08T12:25:39;25.60;;;18.13;;
14203;SDS011;7185;51.854;6.622;2024-03-08T12:28:11;25.02;;;17.33;;
14203;SDS011;7185;51.854;6.622;2024-03-08T12:30:48;23.42;;;17.40;;
14203;SDS011;7185;51.854;6.622;2024-03-08T12:33:27;25.80;;;18.17;;
14203;SDS011;7185;51.854;6.622;2024-03-08T12:36:02;24.83;;;17.80;;
14203;SDS011;7185;51.854;6.622;2024-03-08T12:38:53;25.35;;;19.17;;
14203;SDS011;7185;51.854;6.622;2024-03-08T12:41:53;25.70;;;17.65;;
14203;SDS011;7185;51.854;6.622;2024-03-08T12:47:36;23.17;;;16.70;;
14203;SDS011;7185;51.854;6.622;2024-03-08T12:50:09;23.80;;;17.38;;
14203;SDS011;7185;51.854;6.622;2024-03-08T12:52:41;24.02;;;17.08;;
14203;SDS011;7185;51.854;6.622;2024-03-08T12:55:13;25.58;;;17.67;;
14203;SDS011;7185;51.854;6.622;2024-03-08T12:57:47;24.38;;;17.02;;
14203;SDS011;7185;51.854;6.622;2024-03-08T13:00:19;24.95;;;17.77;;
14203;SDS011;7185;51.854;6.622;2024-03-08T13:02:53;22.75;;;16.88;;
14203;SDS011;7185;51.854;6.622;2024-03-08T13:05:25;25.10;;;17.42;;
14203;SDS011;7185;51.854;6.622;2024-03-08T13:07:58;26.25;;;17.60;;
14203;SDS011;7185;51.854;6.622;2024-03-08T13:10:29;27.92;;;17.90;;
14203;SDS011;7185;51.854;6.622;2024-03-08T13:13:02;23.40;;;16.95;;
14203;SDS011;7185;51.854;6.622;2024-03-08T13:15:35;23.58;;;16.38;;
14203;SDS011;7185;51.854;6.622;2024-03-08T13:18:06;23.08;;;17.17;;
14203;SDS011;7185;51.854;6.622;2024-03-08T13:20:39;23.02;;;15.93;;
14203;SDS011;7185;51.854;6.622;2024-03-08T13:23:14;25.23;;;17.50;;
14203;SDS011;7185;51.854;6.622;2024-03-08T13:25:45;25.92;;;17.45;;
14203;SDS011;7185;51.854;6.622;2024-03-08T13:28:20;22.85;;;16.27;;
14203;SDS011;7185;51.854;6.622;2024-03-08T13:30:53;23.75;;;16.33;;
14203;SDS011;7185;51.854;6.622;2024-03-08T13:33:25;26.33;;;17.02;;
14203;SDS011;7185;51.854;6.622;2024-03-08T13:35:57;24.33;;;16.95;;
14203;SDS011;7185;51.854;6.622;2024-03-08T13:38:31;22.85;;;16.95;;
14203;SDS011;7185;51.854;6.622;2024-03-08T13:41:03;23.77;;;15.80;;
14203;SDS011;7185;51.854;6.622;2024-03-08T13:43:37;24.25;;;16.42;;
14203;SDS011;7185;51.854;6.622;2024-03-08T13:46:10;23.45;;;15.70;;
14203;SDS011;7185;51.854;6.622;2024-03-08T13:48:42;23.83;;;16.35;;
14203;SDS011;7185;51.854;6.622;2024-03-08T13:51:14;24.52;;;16.83;;
14203;SDS011;7185;51.854;6.622;2024-03-08T13:53:47;26.95;;;16.30;;
14203;SDS011;7185;51.854;6.622;2024-03-08T13:56:19;26.45;;;16.92;;
14203;SDS011;7185;51.854;6.622;2024-03-08T13:58:53;21.95;;;15.27;;
14203;SDS011;7185;51.854;6.622;2024-03-08T14:01:26;22.52;;;15.55;;
14203;SDS011;7185;51.854;6.622;2024-03-08T14:03:58;24.08;;;16.23;;
14203;SDS011;7185;51.854;6.622;2024-03-08T14:06:30;22.65;;;15.20;;
14203;SDS011;7185;51.854;6.622;2024-03-08T14:09:01;24.38;;;17.10;;
14203;SDS011;7185;51.854;6.622;2024-03-08T14:11:34;22.90;;;16.45;;
14203;SDS011;7185;51.854;6.622;2024-03-08T14:14:07;22.08;;;15.40;;
14203;SDS011;7185;51.854;6.622;2024-03-08T14:16:39;24.83;;;16.55;;
14203;SDS011;7185;51.854;6.622;2024-03-08T14:19:11;22.50;;;15.60;;
14203;SDS011;7185;51.854;6.622;2024-03-08T14:21:44;21.80;;;15.48;;
14203;SDS011;7185;51.854;6.622;2024-03-08T14:24:17;21.73;;;15.48;;
14203;SDS011;7185;51.854;6.622;2024-03-08T14:26:49;22.42;;;15.80;;
14203;SDS011;7185;51.854;6.622;2024-03-08T14:29:22;22.27;;;15.65;;
14203;SDS011;7185;51.854;6.622;2024-03-08T14:31:56;22.92;;;16.27;;
14203;SDS011;7185;51.854;6.622;2024-03-08T14:34:29;22.17;;;16.17;;
14203;SDS011;7185;51.854;6.622;2024-03-08T14:37:00;23.75;;;16.00;;
14203;SDS011;7185;51.854;6.622;2024-03-08T14:39:35;23.65;;;16.20;;
14203;SDS011;7185;51.854;6.622;2024-03-08T14:42:07;21.85;;;15.32;;
14203;SDS011;7185;51.854;6.622;2024-03-08T14:44:44;23.92;;;16.15;;
14203;SDS011;7185;51.854;6.622;2024-03-08T14:47:21;23.65;;;15.00;;
14203;SDS011;7185;51.854;6.622;2024-03-08T14:49:53;21.83;;;15.27;;
14203;SDS011;7185;51.854;6.622;2024-03-08T14:52:25;22.60;;;15.57;;
14203;SDS011;7185;51.854;6.622;2024-03-08T14:55:00;23.23;;;16.15;;
14203;SDS011;7185;51.854;6.622;2024-03-08T14:57:36;23.73;;;16.45;;
14203;SDS011;7185;51.854;6.622;2024-03-08T15:00:11;22.75;;;15.65;;
14203;SDS011;7185;51.854;6.622;2024-03-08T15:02:48;27.58;;;16.98;;
14203;SDS011;7185;51.854;6.622;2024-03-08T15:05:23;24.40;;;15.75;;
14203;SDS011;7185;51.854;6.622;2024-03-08T15:07:56;24.25;;;15.65;;
14203;SDS011;7185;51.854;6.622;2024-03-08T15:10:29;25.20;;;16.27;;
14203;SDS011;7185;51.854;6.622;2024-03-08T15:13:03;24.70;;;16.17;;
14203;SDS011;7185;51.854;6.622;2024-03-08T15:15:45;27.75;;;17.08;;
14203;SDS011;7185;51.854;6.622;2024-03-08T15:18:22;25.88;;;17.02;;
14203;SDS011;7185;51.854;6.622;2024-03-08T15:21:00;27.77;;;17.38;;
14203;SDS011;7185;51.854;6.622;2024-03-08T15:23:34;24.35;;;16.50;;
14203;SDS011;7185;51.854;6.622;2024-03-08T15:26:06;29.35;;;16.92;;
14203;SDS011;7185;51.854;6.622;2024-03-08T15:28:38;27.52;;;17.45;;
14203;SDS011;7185;51.854;6.622;2024-03-08T15:31:11;27.80;;;17.92;;
14203;SDS011;7185;51.854;6.622;2024-03-08T15:33:43;27.08;;;17.05;;
14203;SDS011;7185;51.854;6.622;2024-03-08T15:36:15;28.50;;;17.45;;
14203;SDS011;7185;51.854;6.622;2024-03-08T15:38:47;29.52;;;17.02;;
14203;SDS011;7185;51.854;6.622;2024-03-08T15:41:19;27.40;;;18.67;;
14203;SDS011;7185;51.854;6.622;2024-03-08T15:43:51;27.65;;;18.17;;
14203;SDS011;7185;51.854;6.622;2024-03-08T15:46:24;25.48;;;17.60;;
14203;SDS011;7185;51.854;6.622;2024-03-08T15:48:55;29.08;;;18.25;;
14203;SDS011;7185;51.854;6.622;2024-03-08T15:51:28;28.35;;;17.95;;
14203;SDS011;7185;51.854;6.622;2024-03-08T15:54:01;27.83;;;17.88;;
14203;SDS011;7185;51.854;6.622;2024-03-08T15:56:34;31.40;;;18.42;;
14203;SDS011;7185;51.854;6.622;2024-03-08T15:59:06;29.77;;;17.77;;
14203;SDS011;7185;51.854;6.622;2024-03-08T16:01:40;30.73;;;18.13;;
14203;SDS011;7185;51.854;6.622;2024-03-08T16:04:11;30.42;;;18.58;;
14203;SDS011;7185;51.854;6.622;2024-03-08T16:06:43;31.85;;;18.98;;
14203;SDS011;7185;51.854;6.622;2024-03-08T16:09:15;30.05;;;19.13;;
14203;SDS011;7185;51.854;6.622;2024-03-08T16:11:47;32.97;;;19.55;;
14203;SDS011;7185;51.854;6.622;2024-03-08T16:14:18;32.92;;;19.35;;
14203;SDS011;7185;51.854;6.622;2024-03-08T16:16:52;32.85;;;19.95;;
14203;SDS011;7185;51.854;6.622;2024-03-08T16:19:23;32.03;;;19.90;;
14203;SDS011;7185;51.854;6.622;2024-03-08T16:21:56;35.72;;;20.60;;
14203;SDS011;7185;51.854;6.622;2024-03-08T16:24:28;33.45;;;20.63;;
14203;SDS011;7185;51.854;6.622;2024-03-08T16:27:02;34.10;;;19.92;;